sensor_id;sensor_type;location;lat;lon;timestamp;P1;durP1;ratioP1;P2;durP2;ratioP2
16033;SDS011;8121;51.418;6.998;2023-08-17T00:35:23;6.80;;;2.20;;
16033;SDS011;8121;51.418;6.998;2023-08-17T00:40:24;2.45;;;2.03;;
16033;SDS011;8121;51.418;6.998;2023-08-17T00:45:34;5.63;;;4.32;;
16033;SDS011;8121;51.418;6.998;2023-08-17T00:50:36;6.55;;;5.05;;
16033;SDS011;8121;51.418;6.998;2023-08-17T00:58:26;5.55;;;3.00;;
16033;SDS011;8121;51.418;6.998;2023-08-17T01:06:44;14.70;;;7.00;;
16033;SDS011;8121;51.418;6.998;2023-08-17T10:08:01;12.80;;;7.20;;
16033;SDS011;8121;51.418;6.998;2023-08-17T14:38:35;11.20;;;8.43;;
16033;SDS011;8121;51.418;6.998;2023-08-17T14:43:36;15.07;;;11.00;;
16033;SDS011;8121;51.418;6.998;2023-08-17T14:48:38;23.90;;;12.63;;
16033;SDS011;8121;51.418;6.998;2023-08-17T14:53:41;21.53;;;12.53;;
16033;SDS011;8121;51.418;6.998;2023-08-17T14:58:43;18.80;;;13.80;;
16033;SDS011;8121;51.418;6.998;2023-08-17T15:03:44;24.73;;;16.47;;
16033;SDS011;8121;51.418;6.998;2023-08-17T15:08:48;26.30;;;16.60;;
16033;SDS011;8121;51.418;6.998;2023-08-17T15:13:49;14.27;;;9.97;;
16033;SDS011;8121;51.418;6.998;2023-08-17T15:18:51;20.88;;;14.15;;
16033;SDS011;8121;51.418;6.998;2023-08-17T15:23:54;33.47;;;18.90;;
16033;SDS011;8121;51.418;6.998;2023-08-17T15:28:56;23.07;;;14.70;;
16033;SDS011;8121;51.418;6.998;2023-08-17T15:33:57;24.67;;;15.60;;
16033;SDS011;8121;51.418;6.998;2023-08-17T15:39:00;30.75;;;16.48;;
16033;SDS011;8121;51.418;6.998;2023-08-17T15:44:02;34.77;;;16.80;;
16033;SDS011;8121;51.418;6.998;2023-08-17T15:49:03;18.40;;;12.70;;
16033;SDS011;8121;51.418;6.998;2023-08-17T15:54:07;21.07;;;14.57;;
16033;SDS011;8121;51.418;6.998;2023-08-17T15:59:08;20.73;;;14.02;;
16033;SDS011;8121;51.418;6.998;2023-08-17T16:04:10;21.00;;;12.97;;
16033;SDS011;8121;51.418;6.998;2023-08-17T16:09:13;21.47;;;13.37;;
16033;SDS011;8121;51.418;6.998;2023-08-17T16:14:14;29.60;;;16.27;;
16033;SDS011;8121;51.418;6.998;2023-08-17T16:19:16;20.33;;;13.50;;
16033;SDS011;8121;51.418;6.998;2023-08-17T16:24:19;23.90;;;13.10;;
16033;SDS011;8121;51.418;6.998;2023-08-17T16:29:21;17.90;;;11.00;;
16033;SDS011;8121;51.418;6.998;2023-08-17T16:34:22;15.50;;;10.20;;
16033;SDS011;8121;51.418;6.998;2023-08-17T16:39:25;22.50;;;11.77;;
16033;SDS011;8121;51.418;6.998;2023-08-17T16:44:27;18.60;;;12.40;;
16033;SDS011;8121;51.418;6.998;2023-08-17T16:49:29;26.97;;;12.20;;
16033;SDS011;8121;51.418;6.998;2023-08-17T16:54:32;21.97;;;11.70;;
16033;SDS011;8121;51.418;6.998;2023-08-17T16:59:34;12.90;;;9.07;;
16033;SDS011;8121;51.418;6.998;2023-08-17T17:04:37;14.60;;;9.07;;
16033;SDS011;8121;51.418;6.998;2023-08-17T17:09:40;20.60;;;10.33;;
16033;SDS011;8121;51.418;6.998;2023-08-17T17:14:41;13.63;;;8.83;;
16033;SDS011;8121;51.418;6.998;2023-08-17T17:19:43;14.03;;;9.03;;
16033;SDS011;8121;51.418;6.998;2023-08-17T17:24:46;12.43;;;9.40;;
16033;SDS011;8121;51.418;6.998;2023-08-17T17:29:48;11.33;;;7.50;;
16033;SDS011;8121;51.418;6.998;2023-08-17T17:34:49;7.47;;;5.10;;
16033;SDS011;8121;51.418;6.998;2023-08-17T17:39:52;5.23;;;3.70;;
16033;SDS011;8121;51.418;6.998;2023-08-17T17:44:54;10.05;;;6.75;;
16033;SDS011;8121;51.418;6.998;2023-08-17T17:49:56;9.20;;;6.03;;
16033;SDS011;8121;51.418;6.998;2023-08-17T17:54:59;7.37;;;4.60;;
16033;SDS011;8121;51.418;6.998;2023-08-17T18:00:00;7.80;;;5.40;;
16033;SDS011;8121;51.418;6.998;2023-08-17T18:05:03;9.40;;;6.97;;
16033;SDS011;8121;51.418;6.998;2023-08-17T18:10:07;4.53;;;4.13;;
16033;SDS011;8121;51.418;6.998;2023-08-17T18:15:10;6.00;;;5.33;;
16033;SDS011;8121;51.418;6.998;2023-08-17T18:20:11;15.90;;;9.07;;
16033;SDS011;8121;51.418;6.998;2023-08-17T18:25:15;4.63;;;4.07;;
16033;SDS011;8121;51.418;6.998;2023-08-17T18:30:17;4.60;;;3.93;;
16033;SDS011;8121;51.418;6.998;2023-08-17T18:35:19;6.67;;;5.53;;
16033;SDS011;8121;51.418;6.998;2023-08-17T18:40:22;12.50;;;8.77;;
16033;SDS011;8121;51.418;6.998;2023-08-17T18:45:23;8.93;;;6.60;;
16033;SDS011;8121;51.418;6.998;2023-08-17T18:50:25;10.47;;;7.60;;
16033;SDS011;8121;51.418;6.998;2023-08-17T18:55:29;18.80;;;12.00;;
16033;SDS011;8121;51.418;6.998;2023-08-17T19:00:32;11.43;;;8.47;;
16033;SDS011;8121;51.418;6.998;2023-08-17T19:05:33;10.30;;;8.27;;
16033;SDS011;8121;51.418;6.998;2023-08-17T19:10:36;9.33;;;6.23;;
16033;SDS011;8121;51.418;6.998;2023-08-17T19:15:38;17.03;;;12.00;;
16033;SDS011;8121;51.418;6.998;2023-08-17T19:20:40;16.33;;;10.33;;
16033;SDS011;8121;51.418;6.998;2023-08-17T19:25:49;9.93;;;6.97;;
16033;SDS011;8121;51.418;6.998;2023-08-17T19:30:51;17.53;;;10.27;;
16033;SDS011;8121;51.418;6.998;2023-08-17T19:35:52;14.13;;;10.63;;
16033;SDS011;8121;51.418;6.998;2023-08-17T19:40:55;17.00;;;12.10;;
16033;SDS011;8121;51.418;6.998;2023-08-17T19:45:57;21.67;;;14.53;;
16033;SDS011;8121;51.418;6.998;2023-08-17T19:50:59;12.50;;;9.80;;
16033;SDS011;8121;51.418;6.998;2023-08-17T19:56:03;18.67;;;13.80;;
16033;SDS011;8121;51.418;6.998;2023-08-17T20:01:09;20.10;;;12.90;;
16033;SDS011;8121;51.418;6.998;2023-08-17T20:06:11;17.33;;;12.87;;
16033;SDS011;8121;51.418;6.998;2023-08-17T20:11:15;20.13;;;13.00;;
16033;SDS011;8121;51.418;6.998;2023-08-17T20:16:17;28.63;;;15.37;;
16033;SDS011;8121;51.418;6.998;2023-08-17T20:21:18;23.40;;;15.63;;
16033;SDS011;8121;51.418;6.998;2023-08-17T20:26:21;31.37;;;18.23;;
16033;SDS011;8121;51.418;6.998;2023-08-17T20:31:23;25.27;;;16.00;;
16033;SDS011;8121;51.418;6.998;2023-08-17T20:36:25;33.20;;;20.63;;
16033;SDS011;8121;51.418;6.998;2023-08-17T20:41:27;34.40;;;20.80;;
16033;SDS011;8121;51.418;6.998;2023-08-17T20:46:29;25.53;;;16.20;;
16033;SDS011;8121;51.418;6.998;2023-08-17T20:51:31;42.97;;;23.17;;
16033;SDS011;8121;51.418;6.998;2023-08-17T20:56:34;24.10;;;14.37;;
16033;SDS011;8121;51.418;6.998;2023-08-17T21:01:36;24.67;;;14.30;;
16033;SDS011;8121;51.418;6.998;2023-08-17T21:06:38;26.53;;;16.27;;
16033;SDS011;8121;51.418;6.998;2023-08-17T21:11:42;32.13;;;21.13;;
16033;SDS011;8121;51.418;6.998;2023-08-17T21:16:44;27.73;;;18.60;;
16033;SDS011;8121;51.418;6.998;2023-08-17T21:21:45;33.15;;;17.05;;
16033;SDS011;8121;51.418;6.998;2023-08-17T21:26:48;22.80;;;16.70;;
16033;SDS011;8121;51.418;6.998;2023-08-17T21:31:49;28.40;;;15.17;;
16033;SDS011;8121;51.418;6.998;2023-08-17T21:36:51;36.73;;;15.23;;
16033;SDS011;8121;51.418;6.998;2023-08-17T21:41:54;27.27;;;14.83;;
16033;SDS011;8121;51.418;6.998;2023-08-17T21:46:56;24.53;;;13.07;;
16033;SDS011;8121;51.418;6.998;2023-08-17T21:51:57;22.67;;;12.90;;
16033;SDS011;8121;51.418;6.998;2023-08-17T22:12:40;27.50;;;12.60;;
16033;SDS011;8121;51.418;6.998;2023-08-17T22:17:42;30.47;;;13.90;;
16033;SDS011;8121;51.418;6.998;2023-08-17T22:22:44;32.63;;;12.70;;
16033;SDS011;8121;51.418;6.998;2023-08-17T22:27:47;24.97;;;13.57;;
16033;SDS011;8121;51.418;6.998;2023-08-17T22:32:48;27.10;;;12.87;;
16033;SDS011;8121;51.418;6.998;2023-08-17T22:37:51;21.40;;;12.33;;
16033;SDS011;8121;51.418;6.998;2023-08-17T22:42:54;21.47;;;12.83;;
16033;SDS011;8121;51.418;6.998;2023-08-17T22:47:55;27.43;;;15.27;;
16033;SDS011;8121;51.418;6.998;2023-08-17T22:52:57;25.13;;;13.33;;
16033;SDS011;8121;51.418;6.998;2023-08-17T22:58:00;25.23;;;15.03;;
16033;SDS011;8121;51.418;6.998;2023-08-17T23:03:01;20.53;;;11.40;;
16033;SDS011;8121;51.418;6.998;2023-08-17T23:08:03;20.00;;;12.40;;
16033;SDS011;8121;51.418;6.998;2023-08-17T23:13:06;29.33;;;14.60;;
16033;SDS011;8121;51.418;6.998;2023-08-17T23:18:09;24.80;;;13.37;;
16033;SDS011;8121;51.418;6.998;2023-08-17T23:23:10;27.10;;;14.50;;
16033;SDS011;8121;51.418;6.998;2023-08-17T23:30:07;26.33;;;14.15;;
16033;SDS011;8121;51.418;6.998;2023-08-17T23:35:10;27.67;;;14.50;;
16033;SDS011;8121;51.418;6.998;2023-08-17T23:40:11;26.53;;;13.43;;
16033;SDS011;8121;51.418;6.998;2023-08-17T23:47:59;17.02;;;10.68;;
16033;SDS011;8121;51.418;6.998;2023-08-17T23:53:11;33.50;;;12.77;;
16033;SDS011;8121;51.418;6.998;2023-08-17T23:58:12;28.73;;;12.40;;
